KXNA Airport Information

Runway Information
Runway 16 Length 8800 ft width 150 ft
Elevation 1287 ft Threshold 0 ft Heading 160
Runway 34 Length 8800 ft Width 150 ft
Elevation 1265 ft Threshold 0 ft Heading 340
Airport Frequencies
Type A/D Name RAZORBACK Frequency 121 MHZ
Type ASOS Name ASOS Frequency 119.425 MHZ
Type CTAF Name CTAF Frequency 127.1 MHZ
Type GND Name GND Frequency 121.9 MHZ
Type RDO Name JONESBORO Frequency 122.55 MHZ
Type TWR Name TWR Frequency 127.1 MHZ
Type UNIC Name UNICOM Frequency 122.95 MHZ
Airport Navaids
Airport Weather Information & NOTAM
ADDS - METARS form results

(1322 UTC 18 May 2021)
Data provider http://aviationweather.gov/metar/data/
 
METAR text: KXNA 181310Z 11004KT 10SM FEW024 BKN031 18/17 A2996 RMK AO2 T01780172
Conditions at: KXNA (BENTONVILLE (NW), AR, US) observed 1310 UTC 18 May 2021
Temperature: 17.8°C (64°F)
Dewpoint: 17.2°C (63°F) [RH = 96%]
Pressure (altimeter): 29.96 inches Hg (1014.6 mb)
Winds: from the ESE (110 degrees) at 5 MPH (4 knots; 2.1 m/s)
Visibility: 10 or more miles (16+ km)
Ceiling: 3100 feet AGL
Clouds: few clouds at 2400 feet AGL
broken clouds at 3100 feet AGL
Weather: no significant weather observed at this time

METAR text: KXNA 181253Z 13003KT 10SM BKN023 OVC029 18/17 A2995 RMK AO2 SLP133 T01780167
Conditions at: KXNA (BENTONVILLE (NW), AR, US) observed 1253 UTC 18 May 2021
Temperature: 17.8°C (64°F)
Dewpoint: 16.7°C (62°F) [RH = 93%]
Pressure (altimeter): 29.95 inches Hg (1014.3 mb)
[Sea-level pressure: 1013.3 mb]
Winds: from the SE (130 degrees) at 3 MPH (3 knots; 1.5 m/s)
Visibility: 10 or more miles (16+ km)
Ceiling: 2300 feet AGL
Clouds: broken clouds at 2300 feet AGL
overcast cloud deck at 2900 feet AGL
Weather: no significant weather observed at this time

METAR text: KXNA 181231Z 14004KT 9SM FEW001 BKN021 17/17 A2995 RMK AO2 T01720167
Conditions at: KXNA (BENTONVILLE (NW), AR, US) observed 1231 UTC 18 May 2021
Temperature: 17.2°C (63°F)
Dewpoint: 16.7°C (62°F) [RH = 97%]
Pressure (altimeter): 29.95 inches Hg (1014.3 mb)
Winds: from the SE (140 degrees) at 5 MPH (4 knots; 2.1 m/s)
Visibility: 9 miles (14 km)
Ceiling: 2100 feet AGL
Clouds: few clouds at 100 feet AGL
broken clouds at 2100 feet AGL
Weather: no significant weather observed at this time

Forecast for: KXNA (BENTONVILLE (NW), AR, US)
Text: KXNA 181122Z 1812/1912 VRB03KT 3SM BR SCT015 BKN050
Forecast period: 1200 to 1400 UTC 18 May 2021
Forecast type: FROM: standard forecast or significant change
Winds: variable direction winds at 3 MPH (3 knots; 1.5 m/s)
Visibility: 3 miles (5 km)
Ceiling: 5000 feet AGL
Clouds: scattered clouds at 1500 feet AGL
broken clouds at 5000 feet AGL
Weather: BR  (mist)
Text: TEMPO 1812/1814 1/2SM FG BKN002
Forecast period: 1200 to 1400 UTC 18 May 2021
Forecast type: TEMPORARY: The following changes expected for less than half the time period
Visibility: 0.50 miles (0.80 km)
Ceiling: 200 feet AGL
Clouds: broken clouds at 200 feet AGL
Weather: FG  (fog)
Text: FM181400 16008KT P6SM BKN035
Forecast period: 1400 UTC 18 May 2021 to 0500 UTC 19 May 2021
Forecast type: FROM: standard forecast or significant change
Winds: from the SSE (160 degrees) at 9 MPH (8 knots; 4.1 m/s)
Visibility: 6 or more miles (10+ km)
Ceiling: 3500 feet AGL
Clouds: broken clouds at 3500 feet AGL
Weather: no significant weather forecast for this period
Text: TEMPO 1901/1905 3SM -TSRA BKN015CB
Forecast period: 0100 to 0500 UTC 19 May 2021
Forecast type: TEMPORARY: The following changes expected for less than half the time period
Visibility: 3 miles (5 km)
Ceiling: 1500 feet AGL
Clouds: broken clouds at 1500 feet AGL
Weather: -TSRA  (light rain associated with thunderstorm(s))
Text: FM190500 16007KT 5SM -TSRA BKN025CB
Forecast period: 0500 to 0900 UTC 19 May 2021
Forecast type: FROM: standard forecast or significant change
Winds: from the SSE (160 degrees) at 8 MPH (7 knots; 3.6 m/s)
Visibility: 5 miles (8 km)
Ceiling: 2500 feet AGL
Clouds: broken clouds at 2500 feet AGL
Weather: -TSRA  (light rain associated with thunderstorm(s))
Text: FM190900 16007KT P6SM BKN025
Forecast period: 0900 to 1200 UTC 19 May 2021
Forecast type: FROM: standard forecast or significant change
Winds: from the SSE (160 degrees) at 8 MPH (7 knots; 3.6 m/s)
Visibility: 6 or more miles (10+ km)
Ceiling: 2500 feet AGL
Clouds: broken clouds at 2500 feet AGL
Weather: no significant weather forecast for this period